createdAt,value
2018-10-17T00:00:28.397Z,25.10
2018-10-17T00:02:58.446Z,26.70
2018-10-17T00:05:30.119Z,26.00
2018-10-17T00:07:59.894Z,25.67
2018-10-17T00:10:34.321Z,26.83
2018-10-17T00:16:14.772Z,25.90
2018-10-17T00:18:43.881Z,27.57
2018-10-17T00:21:13.405Z,27.20
2018-10-17T00:23:42.726Z,26.97
2018-10-17T00:26:12.604Z,27.17
2018-10-17T00:28:42.222Z,27.80
2018-10-17T00:31:13.577Z,27.83
2018-10-17T00:33:45.633Z,27.90
2018-10-17T00:36:15.475Z,29.03
2018-10-17T00:38:48.695Z,28.90
2018-10-17T00:41:18.820Z,29.67
2018-10-17T00:43:48.156Z,27.93
2018-10-17T00:46:17.257Z,28.10
2018-10-17T00:48:46.311Z,27.87
2018-10-17T00:51:15.160Z,28.60
2018-10-17T00:53:46.493Z,28.47
2018-10-17T00:59:15.682Z,29.60
2018-10-17T01:01:44.994Z,30.47
2018-10-17T01:04:16.344Z,30.30
2018-10-17T01:06:45.985Z,29.03
2018-10-17T01:09:16.020Z,27.97
2018-10-17T01:11:45.265Z,30.20
2018-10-17T01:14:14.672Z,28.63
2018-10-17T01:16:43.788Z,30.60
2018-10-17T01:21:52.191Z,27.93
2018-10-17T01:24:21.512Z,31.43
2018-10-17T01:26:51.316Z,31.03
2018-10-17T01:29:21.733Z,32.70
2018-10-17T01:31:51.199Z,33.37
2018-10-17T01:34:20.128Z,34.07
2018-10-17T01:36:49.933Z,33.63
2018-10-17T01:39:20.058Z,32.97
2018-10-17T01:41:49.768Z,34.93
2018-10-17T01:44:19.788Z,35.87
2018-10-17T01:46:49.190Z,34.40
2018-10-17T01:49:18.386Z,36.07
2018-10-17T01:51:47.713Z,33.80
2018-10-17T01:54:17.341Z,33.67
2018-10-17T01:56:46.903Z,35.17
2018-10-17T01:59:16.158Z,34.40
2018-10-17T02:01:45.448Z,34.20
2018-10-17T02:04:15.430Z,32.27
2018-10-17T02:06:44.710Z,34.37
2018-10-17T02:09:14.469Z,34.77
2018-10-17T02:11:44.127Z,36.23
2018-10-17T02:14:13.837Z,38.03
2018-10-17T02:19:30.661Z,40.00
2018-10-17T02:22:00.871Z,38.70
2018-10-17T02:24:30.286Z,40.93
2018-10-17T02:26:59.291Z,41.37
2018-10-17T02:29:28.761Z,43.27
2018-10-17T02:31:58.378Z,42.67
2018-10-17T02:34:27.562Z,41.40
2018-10-17T02:36:57.033Z,40.57
2018-10-17T02:39:26.818Z,40.80
2018-10-17T02:41:58.793Z,41.90
2018-10-17T02:44:27.776Z,42.57
2018-10-17T02:46:57.265Z,40.07
2018-10-17T02:49:26.337Z,38.73
2018-10-17T02:51:56.467Z,37.63
2018-10-17T02:54:25.457Z,41.17
2018-10-17T02:56:54.264Z,38.37
2018-10-17T02:59:23.392Z,38.50
2018-10-17T03:01:52.965Z,40.73
2018-10-17T03:04:23.597Z,41.70
2018-10-17T03:06:52.998Z,42.23
2018-10-17T03:12:02.765Z,43.07
2018-10-17T03:14:31.797Z,43.73
2018-10-17T03:17:02.385Z,43.60
2018-10-17T03:19:31.924Z,44.03
2018-10-17T03:22:02.213Z,42.83
2018-10-17T03:24:31.840Z,42.47
2018-10-17T03:27:02.077Z,43.27
2018-10-17T03:29:32.365Z,41.93
2018-10-17T03:32:01.706Z,40.60
2018-10-17T03:34:31.514Z,40.07
2018-10-17T03:37:00.498Z,39.77
2018-10-17T03:39:29.402Z,38.73
2018-10-17T03:41:59.315Z,41.10
2018-10-17T03:44:28.377Z,42.13
2018-10-17T03:46:57.600Z,39.60
2018-10-17T03:49:26.878Z,40.17
2018-10-17T03:51:56.060Z,41.33
2018-10-17T03:54:26.029Z,40.87
2018-10-17T03:56:56.099Z,38.93
2018-10-17T03:59:25.551Z,40.93
2018-10-17T04:01:55.245Z,41.20
2018-10-17T04:04:24.307Z,39.87
2018-10-17T04:06:54.512Z,39.63
2018-10-17T04:09:24.160Z,38.73
2018-10-17T04:11:53.748Z,38.07
2018-10-17T04:17:11.916Z,37.10
2018-10-17T04:19:40.833Z,36.73
2018-10-17T04:22:10.314Z,36.60
2018-10-17T04:24:39.915Z,37.43
2018-10-17T04:27:09.371Z,37.07
2018-10-17T04:29:38.662Z,35.37
2018-10-17T04:32:07.702Z,35.47
2018-10-17T04:34:36.702Z,36.73
2018-10-17T04:37:05.912Z,38.07
2018-10-17T04:39:35.536Z,36.20
2018-10-17T04:42:04.924Z,36.60
2018-10-17T04:44:34.269Z,37.03
2018-10-17T04:47:03.525Z,35.97
2018-10-17T04:49:32.949Z,34.60
2018-10-17T04:52:02.513Z,35.50
2018-10-17T04:54:31.914Z,36.57
2018-10-17T04:57:02.093Z,35.73
2018-10-17T04:59:32.149Z,35.93
2018-10-17T05:02:01.452Z,33.80
2018-10-17T05:04:30.627Z,34.67
2018-10-17T05:07:00.156Z,33.70
2018-10-17T05:09:31.508Z,36.07
2018-10-17T05:14:45.334Z,35.10
2018-10-17T05:17:14.360Z,35.83
2018-10-17T05:19:45.042Z,36.40
2018-10-17T05:22:15.489Z,35.90
2018-10-17T05:24:45.432Z,36.37
2018-10-17T05:27:16.144Z,35.77
2018-10-17T05:29:47.375Z,35.40
2018-10-17T05:32:16.823Z,31.67
2018-10-17T05:34:47.038Z,33.13
2018-10-17T05:37:16.637Z,34.33
2018-10-17T05:39:46.356Z,31.40
2018-10-17T05:42:15.785Z,32.63
2018-10-17T05:44:46.087Z,31.30
2018-10-17T05:47:15.642Z,32.60
2018-10-17T05:49:44.713Z,32.93
2018-10-17T05:52:18.826Z,32.23
2018-10-17T05:54:55.408Z,33.83
2018-10-17T05:57:24.915Z,35.90
2018-10-17T05:59:54.404Z,33.97
2018-10-17T06:02:27.297Z,33.93
2018-10-17T06:05:16.095Z,34.53
2018-10-17T06:07:55.210Z,34.50
2018-10-17T06:10:24.476Z,34.93
2018-10-17T06:12:52.992Z,35.30
2018-10-17T06:15:23.064Z,34.57
2018-10-17T06:17:58.490Z,33.17
2018-10-17T06:20:28.061Z,34.37
2018-10-17T06:23:00.180Z,34.63
2018-10-17T06:25:29.496Z,35.23
2018-10-17T06:28:11.806Z,34.37
2018-10-17T06:31:11.595Z,33.33
2018-10-17T06:33:41.104Z,32.50
2018-10-17T06:36:11.026Z,31.43
2018-10-17T06:38:40.331Z,31.70
2018-10-17T06:41:09.908Z,32.23
2018-10-17T06:43:40.333Z,31.13
2018-10-17T06:46:10.487Z,29.07
2018-10-17T06:48:39.711Z,30.13
2018-10-17T06:54:04.567Z,29.17
2018-10-17T06:56:33.785Z,27.93
2018-10-17T06:59:10.303Z,30.03
2018-10-17T07:01:40.048Z,30.03
2018-10-17T07:04:10.112Z,29.77
2018-10-17T07:06:40.203Z,28.30
2018-10-17T07:09:10.372Z,27.77
2018-10-17T07:11:40.296Z,28.53
2018-10-17T07:14:09.552Z,27.03
2018-10-17T07:16:38.684Z,28.20
2018-10-17T07:19:07.885Z,28.67
2018-10-17T07:21:37.871Z,28.53
2018-10-17T07:24:06.841Z,30.33
2018-10-17T07:26:36.956Z,29.37
2018-10-17T07:29:06.246Z,28.53
2018-10-17T07:31:35.395Z,30.40
2018-10-17T07:34:05.312Z,29.73
2018-10-17T07:36:34.392Z,28.73
2018-10-17T07:39:03.294Z,27.47
2018-10-17T07:41:32.102Z,28.47
2018-10-17T07:44:15.031Z,27.33
2018-10-17T07:46:43.849Z,27.03
2018-10-17T07:49:13.062Z,26.83
2018-10-17T07:51:41.959Z,26.93
2018-10-17T07:54:12.071Z,26.03
2018-10-17T07:56:42.386Z,25.97
2018-10-17T07:59:11.097Z,24.77
2018-10-17T08:01:39.703Z,25.33
2018-10-17T08:04:08.434Z,25.10
2018-10-17T08:06:37.214Z,25.10
2018-10-17T08:09:09.644Z,25.07
2018-10-17T08:11:38.996Z,23.23
2018-10-17T08:14:08.272Z,23.70
2018-10-17T08:16:37.623Z,23.33
2018-10-17T08:19:07.436Z,23.67
2018-10-17T08:21:36.550Z,23.80
2018-10-17T08:24:05.598Z,23.60
2018-10-17T08:26:35.372Z,22.60
2018-10-17T08:29:05.510Z,23.57
2018-10-17T08:31:34.260Z,24.93
2018-10-17T08:34:03.036Z,23.27
2018-10-17T08:36:31.910Z,19.70
2018-10-17T08:39:07.047Z,21.30
2018-10-17T08:41:35.728Z,18.50
2018-10-17T08:44:06.356Z,18.50
2018-10-17T08:46:39.731Z,16.87
2018-10-17T08:49:12.853Z,17.93
2018-10-17T08:51:43.572Z,17.43
2018-10-17T08:54:16.007Z,18.80
2018-10-17T08:56:57.685Z,15.97
2018-10-17T08:59:37.047Z,14.77
2018-10-17T09:02:23.440Z,15.27
2018-10-17T09:04:54.586Z,17.07
2018-10-17T09:07:24.646Z,16.43
2018-10-17T09:09:57.942Z,15.60
2018-10-17T09:12:38.925Z,16.47
2018-10-17T09:15:12.190Z,16.40
2018-10-17T09:17:45.540Z,16.43
2018-10-17T09:20:20.947Z,16.43
2018-10-17T09:22:59.175Z,15.20
2018-10-17T09:25:31.891Z,18.20
2018-10-17T09:28:09.461Z,16.67
2018-10-17T09:30:51.239Z,18.00
2018-10-17T09:33:24.252Z,17.17
2018-10-17T09:35:58.224Z,15.60
2018-10-17T09:39:17.132Z,14.97
2018-10-17T09:41:49.121Z,13.70
2018-10-17T09:44:24.766Z,14.20
2018-10-17T09:47:04.687Z,13.67
2018-10-17T09:49:44.640Z,15.20
2018-10-17T10:06:04.268Z,11.33
2018-10-17T10:08:32.773Z,9.97
2018-10-17T10:11:01.322Z,10.60
2018-10-17T10:13:35.571Z,11.13
2018-10-17T10:16:04.191Z,12.07
2018-10-17T10:18:32.953Z,10.43
2018-10-17T10:33:21.978Z,12.43
2018-10-17T11:12:41.053Z,4.53
2018-10-17T11:15:10.213Z,4.40
2018-10-17T11:17:39.187Z,4.10
2018-10-17T11:20:08.456Z,4.20
2018-10-17T11:22:37.560Z,4.23
2018-10-17T11:25:07.890Z,4.53
2018-10-17T11:27:36.567Z,4.60
2018-10-17T11:30:06.239Z,4.13
2018-10-17T11:32:34.821Z,3.30
2018-10-17T11:35:03.722Z,3.57
2018-10-17T11:37:32.704Z,3.60
2018-10-17T11:40:01.760Z,3.60
2018-10-17T11:51:46.282Z,3.40
2018-10-17T11:54:38.064Z,3.90
2018-10-17T11:57:08.547Z,3.67
2018-10-17T11:59:37.944Z,3.90
2018-10-17T12:02:08.048Z,3.60
2018-10-17T12:04:40.356Z,3.90
2018-10-17T12:07:21.074Z,3.93
2018-10-17T12:09:50.321Z,4.00
2018-10-17T12:12:21.164Z,3.90
2018-10-17T12:14:50.702Z,3.40
2018-10-17T12:17:21.938Z,3.20
2018-10-17T12:19:57.592Z,3.00
2018-10-17T12:22:35.649Z,3.10
2018-10-17T12:25:06.174Z,3.53
2018-10-17T12:27:34.927Z,3.40
2018-10-17T12:30:28.590Z,3.43
2018-10-17T12:32:57.922Z,3.70
2018-10-17T12:35:26.779Z,3.33
2018-10-17T12:37:57.115Z,2.73
2018-10-17T12:40:39.745Z,3.60
2018-10-17T12:43:09.361Z,4.10
2018-10-17T12:45:38.167Z,3.80
2018-10-17T12:48:07.172Z,3.50
2018-10-17T12:50:38.312Z,3.50
2018-10-17T12:53:07.502Z,3.27
2018-10-17T12:55:36.937Z,3.80
2018-10-17T12:58:07.951Z,3.33
2018-10-17T13:00:36.592Z,3.40
2018-10-17T13:03:05.564Z,2.87
2018-10-17T13:05:34.967Z,3.53
2018-10-17T13:08:03.522Z,3.03
2018-10-17T13:10:34.116Z,3.07
2018-10-17T13:13:03.015Z,3.23
2018-10-17T13:15:32.244Z,3.27
2018-10-17T13:18:01.198Z,3.27
2018-10-17T13:20:30.183Z,2.93
2018-10-17T13:22:59.723Z,2.80
2018-10-17T13:25:32.740Z,3.23
2018-10-17T13:28:02.369Z,3.13
2018-10-17T13:30:38.549Z,3.53
2018-10-17T13:33:10.405Z,2.83
2018-10-17T13:35:39.138Z,2.63
2018-10-17T13:38:08.084Z,2.83
2018-10-17T13:40:36.771Z,2.50
2018-10-17T13:43:05.388Z,2.60
2018-10-17T13:45:40.464Z,2.30
2018-10-17T13:48:09.153Z,2.80
2018-10-17T13:50:37.848Z,2.70
2018-10-17T13:53:07.188Z,2.50
2018-10-17T13:55:35.797Z,2.07
2018-10-17T13:58:07.906Z,2.40
2018-10-17T14:00:36.661Z,2.20
2018-10-17T14:03:09.907Z,2.50
2018-10-17T14:05:38.598Z,2.40
2018-10-17T14:08:07.381Z,2.47
2018-10-17T14:10:42.563Z,2.23
2018-10-17T14:13:12.803Z,3.30
2018-10-17T14:15:41.518Z,2.70
2018-10-17T14:18:10.392Z,2.70
2018-10-17T14:20:39.220Z,2.93
2018-10-17T14:23:07.808Z,2.67
2018-10-17T14:25:36.408Z,2.53
2018-10-17T14:28:05.121Z,2.37
2018-10-17T14:30:33.848Z,2.67
2018-10-17T14:33:04.652Z,2.83
2018-10-17T14:35:33.805Z,2.63
2018-10-17T14:38:02.915Z,2.60
2018-10-17T14:40:35.075Z,2.40
2018-10-17T14:43:04.924Z,2.57
2018-10-17T14:45:33.671Z,2.83
2018-10-17T14:48:02.527Z,2.60
2018-10-17T14:50:31.534Z,2.60
2018-10-17T14:53:00.744Z,2.40
2018-10-17T14:55:30.429Z,2.33
2018-10-17T14:58:00.788Z,2.20
2018-10-17T15:00:29.868Z,2.23
2018-10-17T15:02:58.711Z,2.70
2018-10-17T15:05:31.027Z,2.70
2018-10-17T15:08:32.531Z,2.33
2018-10-17T15:11:05.852Z,2.47
2018-10-17T15:13:46.259Z,2.30
2018-10-17T15:25:45.440Z,2.50
2018-10-17T15:28:16.256Z,2.43
2018-10-17T15:30:47.691Z,2.50
2018-10-17T15:33:17.776Z,2.60
2018-10-17T15:36:16.290Z,2.80
2018-10-17T15:38:57.103Z,2.60
2018-10-17T15:41:27.094Z,2.10
2018-10-17T15:43:56.515Z,1.87
2018-10-17T15:46:26.988Z,2.20
2018-10-17T15:48:56.603Z,2.30
2018-10-17T15:51:54.508Z,1.87
2018-10-17T15:54:37.575Z,2.50
2018-10-17T15:57:10.409Z,2.30
2018-10-17T15:59:43.668Z,2.30
2018-10-17T16:02:15.761Z,2.17
2018-10-17T16:04:46.740Z,2.23
2018-10-17T16:07:18.532Z,2.07
2018-10-17T16:09:54.939Z,2.50
2018-10-17T16:12:24.368Z,2.60
2018-10-17T16:14:57.943Z,2.40
2018-10-17T16:17:32.949Z,2.20
2018-10-17T16:23:08.452Z,3.03
2018-10-17T16:25:41.002Z,2.27
2018-10-17T16:28:14.236Z,2.40
2018-10-17T16:30:47.534Z,2.70
2018-10-17T16:33:16.414Z,2.53
2018-10-17T16:35:48.747Z,2.50
2018-10-17T16:38:32.145Z,2.43
2018-10-17T16:41:15.244Z,2.50
2018-10-17T16:43:49.871Z,2.50
2018-10-17T16:46:19.129Z,2.40
2018-10-17T16:48:48.213Z,3.10
2018-10-17T16:51:24.233Z,2.90
2018-10-17T16:53:55.823Z,3.40
2018-10-17T16:56:35.431Z,2.83
2018-10-17T16:59:08.874Z,3.63
2018-10-17T17:01:40.879Z,3.43
2018-10-17T17:04:10.363Z,3.00
2018-10-17T17:06:41.666Z,3.70
2018-10-17T17:09:24.326Z,4.00
2018-10-17T17:14:39.351Z,3.47
2018-10-17T17:23:52.057Z,3.27
2018-10-17T17:26:20.870Z,4.30
2018-10-17T17:28:59.565Z,4.13
2018-10-17T17:31:33.181Z,4.23
2018-10-17T17:34:04.791Z,4.10
2018-10-17T17:36:46.542Z,4.53
2018-10-17T17:39:27.731Z,4.90
2018-10-17T17:42:11.787Z,4.67
2018-10-17T17:44:44.928Z,6.07
2018-10-17T17:47:13.595Z,4.77
2018-10-17T17:50:19.064Z,4.40
2018-10-17T17:52:57.312Z,4.87
2018-10-17T17:55:30.452Z,4.90
2018-10-17T17:58:01.706Z,5.07
2018-10-17T18:00:31.103Z,5.23
2018-10-17T18:03:06.948Z,5.50
2018-10-17T18:08:25.995Z,5.40
2018-10-17T18:10:56.705Z,4.90
2018-10-17T18:13:34.015Z,5.40
2018-10-17T18:41:06.337Z,5.83
2018-10-17T18:43:47.091Z,6.00
2018-10-17T18:46:18.554Z,6.67
2018-10-17T19:34:31.172Z,6.03
2018-10-17T19:37:01.837Z,6.23
2018-10-17T19:39:30.904Z,6.40
2018-10-17T21:43:23.976Z,8.30
2018-10-17T21:46:11.321Z,8.50
2018-10-17T21:55:52.346Z,9.63
2018-10-17T22:01:42.446Z,9.10
2018-10-17T22:07:20.436Z,10.03
2018-10-17T22:09:54.842Z,9.80
2018-10-17T22:12:50.736Z,10.57
2018-10-17T22:15:36.696Z,9.03
2018-10-17T22:53:52.355Z,7.47
2018-10-17T22:56:22.191Z,7.40
2018-10-17T23:02:02.239Z,7.80
2018-10-17T23:04:31.298Z,7.00
2018-10-17T23:07:00.495Z,7.20
2018-10-17T23:09:29.732Z,7.27
2018-10-17T23:12:02.839Z,7.47
2018-10-17T23:14:32.143Z,7.47
2018-10-17T23:17:02.286Z,7.70
2018-10-17T23:19:35.598Z,7.17
2018-10-17T23:22:05.397Z,7.80
2018-10-17T23:24:34.413Z,7.37
2018-10-17T23:27:06.015Z,7.40
2018-10-17T23:29:38.656Z,7.33
2018-10-17T23:32:09.911Z,7.50
2018-10-17T23:34:38.641Z,8.33
2018-10-17T23:37:07.328Z,7.30
2018-10-17T23:39:37.967Z,7.97
2018-10-17T23:42:07.519Z,7.97
2018-10-17T23:44:36.398Z,8.67
2018-10-17T23:47:06.340Z,7.97
2018-10-17T23:49:42.291Z,7.43
2018-10-17T23:52:11.673Z,8.00
2018-10-17T23:54:42.321Z,9.00
2018-10-17T23:57:27.873Z,8.30
2018-10-17T23:59:57.601Z,8.30
